sensor_id;sensor_type;location;lat;lon;timestamp;pressure;altitude;pressure_sealevel;temperature;humidity
15405;BME280;7801;48.124;11.590;2023-07-31T00:00:10;95608.69;;;18.54;73.48
15405;BME280;7801;48.124;11.590;2023-07-31T00:02:36;95605.22;;;18.54;73.95
15405;BME280;7801;48.124;11.590;2023-07-31T00:05:01;95602.87;;;18.40;73.78
15405;BME280;7801;48.124;11.590;2023-07-31T00:07:26;95601.31;;;18.51;73.83
15405;BME280;7801;48.124;11.590;2023-07-31T00:09:52;95598.62;;;18.39;73.88
15405;BME280;7801;48.124;11.590;2023-07-31T00:12:19;95602.09;;;18.52;73.03
15405;BME280;7801;48.124;11.590;2023-07-31T00:14:44;95600.88;;;18.37;73.77
15405;BME280;7801;48.124;11.590;2023-07-31T00:17:09;95602.44;;;18.38;73.92
15405;BME280;7801;48.124;11.590;2023-07-31T00:19:35;95601.09;;;18.44;73.75
15405;BME280;7801;48.124;11.590;2023-07-31T00:22:00;95597.72;;;18.35;73.80
15405;BME280;7801;48.124;11.590;2023-07-31T00:24:26;95602.53;;;18.30;73.84
15405;BME280;7801;48.124;11.590;2023-07-31T00:26:51;95598.62;;;18.39;72.92
15405;BME280;7801;48.124;11.590;2023-07-31T00:29:16;95587.13;;;18.27;73.49
15405;BME280;7801;48.124;11.590;2023-07-31T00:31:42;95592.56;;;18.30;74.04
15405;BME280;7801;48.124;11.590;2023-07-31T00:34:07;95594.25;;;18.35;74.27
15405;BME280;7801;48.124;11.590;2023-07-31T00:36:32;95590.66;;;18.31;74.32
15405;BME280;7801;48.124;11.590;2023-07-31T00:38:57;95591.00;;;18.29;73.82
15405;BME280;7801;48.124;11.590;2023-07-31T00:41:23;95577.69;;;18.33;73.66
15405;BME280;7801;48.124;11.590;2023-07-31T00:43:48;95584.62;;;18.22;74.54
15405;BME280;7801;48.124;11.590;2023-07-31T00:46:13;95583.06;;;18.33;73.75
15405;BME280;7801;48.124;11.590;2023-07-31T00:48:39;95584.75;;;18.25;74.66
15405;BME280;7801;48.124;11.590;2023-07-31T00:51:04;95579.59;;;18.32;74.58
15405;BME280;7801;48.124;11.590;2023-07-31T00:53:30;95579.59;;;18.20;74.98
15405;BME280;7801;48.124;11.590;2023-07-31T00:55:55;95578.91;;;18.11;75.68
15405;BME280;7801;48.124;11.590;2023-07-31T00:58:21;95577.59;;;18.05;76.28
15405;BME280;7801;48.124;11.590;2023-07-31T01:00:46;95580.03;;;18.10;75.84
15405;BME280;7801;48.124;11.590;2023-07-31T01:03:12;95573.78;;;18.06;75.91
15405;BME280;7801;48.124;11.590;2023-07-31T01:11:00;95580.16;;;18.13;75.93
15405;BME280;7801;48.124;11.590;2023-07-31T01:13:28;95570.06;;;18.10;75.55
15405;BME280;7801;48.124;11.590;2023-07-31T01:15:53;95563.47;;;17.96;76.33
15405;BME280;7801;48.124;11.590;2023-07-31T01:18:19;95561.34;;;18.01;75.86
15405;BME280;7801;48.124;11.590;2023-07-31T01:20:47;95561.69;;;18.00;76.27
15405;BME280;7801;48.124;11.590;2023-07-31T01:23:37;95555.19;;;18.01;76.61
15405;BME280;7801;48.124;11.590;2023-07-31T01:26:12;95554.97;;;17.94;76.81
15405;BME280;7801;48.124;11.590;2023-07-31T01:28:53;95559.78;;;18.12;76.50
15405;BME280;7801;48.124;11.590;2023-07-31T01:31:23;95550.50;;;18.10;76.81
15405;BME280;7801;48.124;11.590;2023-07-31T01:33:50;95553.97;;;18.10;76.61
15405;BME280;7801;48.124;11.590;2023-07-31T01:36:17;95542.56;;;18.13;76.12
15405;BME280;7801;48.124;11.590;2023-07-31T01:38:43;95545.81;;;18.19;75.97
15405;BME280;7801;48.124;11.590;2023-07-31T01:41:08;95543.47;;;18.05;75.81
15405;BME280;7801;48.124;11.590;2023-07-31T01:43:33;95545.56;;;18.12;76.02
15405;BME280;7801;48.124;11.590;2023-07-31T01:45:59;95539.41;;;18.11;76.14
15405;BME280;7801;48.124;11.590;2023-07-31T01:48:24;95533.72;;;18.13;76.07
15405;BME280;7801;48.124;11.590;2023-07-31T01:50:49;95542.00;;;18.08;76.37
15405;BME280;7801;48.124;11.590;2023-07-31T01:53:15;95536.75;;;17.99;76.34
15405;BME280;7801;48.124;11.590;2023-07-31T01:55:40;95535.88;;;18.07;76.58
15405;BME280;7801;48.124;11.590;2023-07-31T01:58:05;95545.03;;;18.18;76.41
15405;BME280;7801;48.124;11.590;2023-07-31T02:00:31;95533.50;;;18.18;76.31
15405;BME280;7801;48.124;11.590;2023-07-31T02:02:56;95539.75;;;18.10;76.94
15405;BME280;7801;48.124;11.590;2023-07-31T02:05:21;95535.06;;;18.07;77.08
15405;BME280;7801;48.124;11.590;2023-07-31T02:07:46;95527.87;;;18.11;76.82
15405;BME280;7801;48.124;11.590;2023-07-31T02:10:12;95537.97;;;18.14;77.00
15405;BME280;7801;48.124;11.590;2023-07-31T02:12:38;95530.91;;;18.09;77.04
15405;BME280;7801;48.124;11.590;2023-07-31T02:15:03;95527.78;;;18.19;76.82
15405;BME280;7801;48.124;11.590;2023-07-31T02:17:29;95529.69;;;18.19;77.33
15405;BME280;7801;48.124;11.590;2023-07-31T02:19:54;95529.13;;;18.13;77.50
15405;BME280;7801;48.124;11.590;2023-07-31T02:22:20;95516.72;;;18.21;77.10
15405;BME280;7801;48.124;11.590;2023-07-31T02:24:45;95516.94;;;18.16;77.28
15405;BME280;7801;48.124;11.590;2023-07-31T02:27:10;95512.34;;;18.16;77.24
15405;BME280;7801;48.124;11.590;2023-07-31T02:29:36;95505.97;;;18.21;77.44
15405;BME280;7801;48.124;11.590;2023-07-31T02:32:01;95508.00;;;18.24;76.64
15405;BME280;7801;48.124;11.590;2023-07-31T02:34:26;95507.66;;;18.26;76.78
15405;BME280;7801;48.124;11.590;2023-07-31T02:36:52;95516.81;;;18.25;76.68
15405;BME280;7801;48.124;11.590;2023-07-31T02:39:17;95505.84;;;18.17;77.25
15405;BME280;7801;48.124;11.590;2023-07-31T02:41:42;95502.84;;;18.19;77.43
15405;BME280;7801;48.124;11.590;2023-07-31T02:44:08;95494.09;;;18.22;77.39
15405;BME280;7801;48.124;11.590;2023-07-31T02:46:33;95497.59;;;18.23;77.36
15405;BME280;7801;48.124;11.590;2023-07-31T02:48:58;95502.84;;;18.19;77.24
15405;BME280;7801;48.124;11.590;2023-07-31T02:51:24;95491.09;;;18.11;77.91
15405;BME280;7801;48.124;11.590;2023-07-31T02:53:49;95485.28;;;18.22;77.63
15405;BME280;7801;48.124;11.590;2023-07-31T02:56:14;95482.69;;;18.13;78.12
15405;BME280;7801;48.124;11.590;2023-07-31T02:58:40;95487.16;;;18.21;78.02
15405;BME280;7801;48.124;11.590;2023-07-31T03:01:05;95486.16;;;18.13;78.51
15405;BME280;7801;48.124;11.590;2023-07-31T03:03:30;95487.28;;;18.12;78.75
15405;BME280;7801;48.124;11.590;2023-07-31T03:05:56;95483.81;;;18.00;78.91
15405;BME280;7801;48.124;11.590;2023-07-31T03:08:21;95488.41;;;17.99;79.05
15405;BME280;7801;48.124;11.590;2023-07-31T03:10:46;95485.84;;;18.03;78.45
15405;BME280;7801;48.124;11.590;2023-07-31T03:13:12;95481.37;;;17.95;78.99
15405;BME280;7801;48.124;11.590;2023-07-31T03:15:37;95485.38;;;17.76;80.11
15405;BME280;7801;48.124;11.590;2023-07-31T03:18:02;95481.25;;;17.91;79.48
15405;BME280;7801;48.124;11.590;2023-07-31T03:20:27;95484.97;;;17.87;79.85
15405;BME280;7801;48.124;11.590;2023-07-31T03:22:53;95474.31;;;17.90;79.94
15405;BME280;7801;48.124;11.590;2023-07-31T03:25:18;95483.81;;;17.75;80.51
15405;BME280;7801;48.124;11.590;2023-07-31T03:27:43;95475.09;;;17.66;80.84
15405;BME280;7801;48.124;11.590;2023-07-31T03:30:09;95484.28;;;17.65;80.90
15405;BME280;7801;48.124;11.590;2023-07-31T03:32:34;95482.59;;;17.73;80.85
15405;BME280;7801;48.124;11.590;2023-07-31T03:35:00;95487.59;;;17.62;81.21
15405;BME280;7801;48.124;11.590;2023-07-31T03:37:25;95487.13;;;17.60;81.42
15405;BME280;7801;48.124;11.590;2023-07-31T03:39:51;95491.06;;;17.63;81.40
15405;BME280;7801;48.124;11.590;2023-07-31T03:42:16;95493.44;;;17.64;81.50
15405;BME280;7801;48.124;11.590;2023-07-31T03:44:42;95491.06;;;17.63;81.84
15405;BME280;7801;48.124;11.590;2023-07-31T03:47:07;95493.16;;;17.57;82.38
15405;BME280;7801;48.124;11.590;2023-07-31T03:49:32;95489.41;;;17.70;81.85
15405;BME280;7801;48.124;11.590;2023-07-31T03:51:58;95494.72;;;17.58;82.40
15405;BME280;7801;48.124;11.590;2023-07-31T03:54:23;95497.16;;;17.51;82.98
15405;BME280;7801;48.124;11.590;2023-07-31T03:56:49;95494.94;;;17.53;82.83
15405;BME280;7801;48.124;11.590;2023-07-31T03:59:14;95496.41;;;17.63;82.74
15405;BME280;7801;48.124;11.590;2023-07-31T04:01:40;95499.84;;;17.51;83.21
15405;BME280;7801;48.124;11.590;2023-07-31T04:04:05;95500.56;;;17.60;83.04
15405;BME280;7801;48.124;11.590;2023-07-31T04:06:30;95499.31;;;17.58;83.05
15405;BME280;7801;48.124;11.590;2023-07-31T04:08:56;95491.13;;;17.42;83.92
15405;BME280;7801;48.124;11.590;2023-07-31T04:11:21;95495.84;;;17.45;83.84
15405;BME280;7801;48.124;11.590;2023-07-31T04:13:46;95493.81;;;17.54;83.23
15405;BME280;7801;48.124;11.590;2023-07-31T04:16:12;95486.44;;;17.39;84.29
15405;BME280;7801;48.124;11.590;2023-07-31T04:18:37;95482.84;;;17.47;83.98
15405;BME280;7801;48.124;11.590;2023-07-31T04:21:03;95476.63;;;17.55;83.76
15405;BME280;7801;48.124;11.590;2023-07-31T04:23:28;95485.19;;;17.48;84.04
15405;BME280;7801;48.124;11.590;2023-07-31T04:25:53;95490.03;;;17.55;84.00
15405;BME280;7801;48.124;11.590;2023-07-31T04:28:19;95486.88;;;17.53;84.25
15405;BME280;7801;48.124;11.590;2023-07-31T04:30:44;95482.84;;;17.47;84.47
15405;BME280;7801;48.124;11.590;2023-07-31T04:33:09;95486.09;;;17.52;84.55
15405;BME280;7801;48.124;11.590;2023-07-31T04:35:35;95489.03;;;17.60;84.19
15405;BME280;7801;48.124;11.590;2023-07-31T04:38:00;95487.25;;;17.64;84.21
15405;BME280;7801;48.124;11.590;2023-07-31T04:40:25;95484.91;;;17.62;84.26
15405;BME280;7801;48.124;11.590;2023-07-31T04:42:51;95483.00;;;17.63;84.51
15405;BME280;7801;48.124;11.590;2023-07-31T04:45:16;95485.38;;;17.64;84.49
15405;BME280;7801;48.124;11.590;2023-07-31T04:47:42;95477.84;;;17.58;84.99
15405;BME280;7801;48.124;11.590;2023-07-31T04:50:07;95477.84;;;17.58;84.87
15405;BME280;7801;48.124;11.590;2023-07-31T04:52:33;95469.47;;;17.59;84.71
15405;BME280;7801;48.124;11.590;2023-07-31T04:54:58;95476.28;;;17.57;84.96
15405;BME280;7801;48.124;11.590;2023-07-31T04:57:23;95474.59;;;17.40;85.81
15405;BME280;7801;48.124;11.590;2023-07-31T04:59:49;95469.44;;;17.47;85.69
15405;BME280;7801;48.124;11.590;2023-07-31T05:02:14;95468.13;;;17.53;85.80
15405;BME280;7801;48.124;11.590;2023-07-31T05:04:39;95473.94;;;17.55;85.64
15405;BME280;7801;48.124;11.590;2023-07-31T05:07:05;95464.88;;;17.60;85.70
15405;BME280;7801;48.124;11.590;2023-07-31T05:09:30;95476.66;;;17.67;85.39
15405;BME280;7801;48.124;11.590;2023-07-31T05:11:56;95474.31;;;17.66;85.29
15405;BME280;7801;48.124;11.590;2023-07-31T05:14:21;95471.41;;;17.71;85.01
15405;BME280;7801;48.124;11.590;2023-07-31T05:16:46;95473.75;;;17.72;85.07
15405;BME280;7801;48.124;11.590;2023-07-31T05:19:12;95472.63;;;17.73;85.22
15405;BME280;7801;48.124;11.590;2023-07-31T05:21:37;95471.41;;;17.71;85.33
15405;BME280;7801;48.124;11.590;2023-07-31T05:24:03;95479.91;;;17.73;85.40
15405;BME280;7801;48.124;11.590;2023-07-31T05:26:28;95476.41;;;17.60;85.98
15405;BME280;7801;48.124;11.590;2023-07-31T05:28:53;95475.19;;;17.70;85.56
15405;BME280;7801;48.124;11.590;2023-07-31T05:31:19;95478.22;;;17.68;85.60
15405;BME280;7801;48.124;11.590;2023-07-31T05:33:45;95470.62;;;17.70;85.46
15405;BME280;7801;48.124;11.590;2023-07-31T05:36:11;95468.94;;;17.78;85.69
15405;BME280;7801;48.124;11.590;2023-07-31T05:38:36;95458.91;;;17.87;85.03
15405;BME280;7801;48.124;11.590;2023-07-31T05:41:01;95468.94;;;17.90;84.59
15405;BME280;7801;48.124;11.590;2023-07-31T05:43:30;95464.59;;;17.85;84.28
15405;BME280;7801;48.124;11.590;2023-07-31T05:45:55;95460.31;;;18.09;84.29
15405;BME280;7801;48.124;11.590;2023-07-31T05:48:20;95462.66;;;18.10;84.57
15405;BME280;7801;48.124;11.590;2023-07-31T05:50:46;95456.50;;;18.22;83.42
15405;BME280;7801;48.124;11.590;2023-07-31T05:53:11;95462.00;;;18.26;82.58
15405;BME280;7801;48.124;11.590;2023-07-31T05:55:36;95458.31;;;18.18;81.70
15405;BME280;7801;48.124;11.590;2023-07-31T05:58:02;95469.03;;;18.18;82.08
15405;BME280;7801;48.124;11.590;2023-07-31T06:00:27;95459.19;;;18.22;82.05
15405;BME280;7801;48.124;11.590;2023-07-31T06:02:53;95459.41;;;18.17;81.78
15405;BME280;7801;48.124;11.590;2023-07-31T06:05:18;95464.00;;;18.29;81.34
15405;BME280;7801;48.124;11.590;2023-07-31T06:07:44;95460.97;;;18.30;81.68
15405;BME280;7801;48.124;11.590;2023-07-31T06:10:09;95461.41;;;18.32;81.98
15405;BME280;7801;48.124;11.590;2023-07-31T06:12:35;95457.25;;;18.35;81.37
15405;BME280;7801;48.124;11.590;2023-07-31T06:15:02;95459.81;;;18.43;82.07
15405;BME280;7801;48.124;11.590;2023-07-31T06:17:28;95456.22;;;18.51;81.44
15405;BME280;7801;48.124;11.590;2023-07-31T06:19:53;95461.50;;;18.60;80.91
15405;BME280;7801;48.124;11.590;2023-07-31T06:22:18;95462.59;;;18.59;81.49
15405;BME280;7801;48.124;11.590;2023-07-31T06:24:44;95466.28;;;18.67;80.02
15405;BME280;7801;48.124;11.590;2023-07-31T06:27:10;95470.53;;;18.68;78.21
15405;BME280;7801;48.124;11.590;2023-07-31T06:29:35;95472.91;;;18.69;78.70
15405;BME280;7801;48.124;11.590;2023-07-31T06:32:00;95479.91;;;18.74;78.48
15405;BME280;7801;48.124;11.590;2023-07-31T06:34:26;95475.66;;;18.73;77.47
15405;BME280;7801;48.124;11.590;2023-07-31T06:36:51;95485.72;;;18.76;78.14
15405;BME280;7801;48.124;11.590;2023-07-31T06:39:16;95476.53;;;18.77;77.87
15405;BME280;7801;48.124;11.590;2023-07-31T06:41:42;95478.44;;;18.76;77.67
15405;BME280;7801;48.124;11.590;2023-07-31T06:44:08;95473.69;;;18.70;77.95
15405;BME280;7801;48.124;11.590;2023-07-31T06:46:33;95473.41;;;18.75;77.38
15405;BME280;7801;48.124;11.590;2023-07-31T06:48:59;95480.41;;;18.64;78.23
15405;BME280;7801;48.124;11.590;2023-07-31T06:51:24;95470.09;;;18.66;76.61
15405;BME280;7801;48.124;11.590;2023-07-31T06:53:49;95483.88;;;18.52;76.90
15405;BME280;7801;48.124;11.590;2023-07-31T06:56:15;95474.09;;;18.72;77.03
15405;BME280;7801;48.124;11.590;2023-07-31T06:58:40;95480.59;;;18.71;76.61
15405;BME280;7801;48.124;11.590;2023-07-31T07:01:05;95471.72;;;18.82;76.25
15405;BME280;7801;48.124;11.590;2023-07-31T07:03:32;95459.84;;;18.83;77.98
15405;BME280;7801;48.124;11.590;2023-07-31T07:05:57;95457.72;;;19.05;75.91
15405;BME280;7801;48.124;11.590;2023-07-31T07:08:24;95449.31;;;19.06;75.99
15405;BME280;7801;48.124;11.590;2023-07-31T07:10:49;95453.47;;;19.04;76.58
15405;BME280;7801;48.124;11.590;2023-07-31T07:13:15;95457.19;;;18.99;76.66
15405;BME280;7801;48.124;11.590;2023-07-31T07:15:40;95459.41;;;19.09;76.28
15405;BME280;7801;48.124;11.590;2023-07-31T07:18:06;95456.28;;;19.07;76.62
15405;BME280;7801;48.124;11.590;2023-07-31T07:20:31;95454.19;;;19.16;76.19
15405;BME280;7801;48.124;11.590;2023-07-31T07:22:57;95453.81;;;19.02;76.27
15405;BME280;7801;48.124;11.590;2023-07-31T07:25:22;95460.19;;;19.26;76.52
15405;BME280;7801;48.124;11.590;2023-07-31T07:27:47;95456.53;;;19.18;76.59
15405;BME280;7801;48.124;11.590;2023-07-31T07:30:13;95461.13;;;19.17;75.65
15405;BME280;7801;48.124;11.590;2023-07-31T07:32:39;95454.41;;;19.39;75.75
15405;BME280;7801;48.124;11.590;2023-07-31T07:35:05;95457.41;;;19.50;75.04
15405;BME280;7801;48.124;11.590;2023-07-31T07:37:31;95455.16;;;19.52;74.64
15405;BME280;7801;48.124;11.590;2023-07-31T07:39:56;95448.44;;;19.62;74.56
15405;BME280;7801;48.124;11.590;2023-07-31T07:42:22;95447.91;;;19.56;74.45
15405;BME280;7801;48.124;11.590;2023-07-31T07:44:48;95446.78;;;19.57;72.62
15405;BME280;7801;48.124;11.590;2023-07-31T07:47:13;95446.28;;;19.67;72.13
15405;BME280;7801;48.124;11.590;2023-07-31T07:49:38;95446.19;;;19.79;71.61
15405;BME280;7801;48.124;11.590;2023-07-31T07:52:04;95439.16;;;19.90;72.01
15405;BME280;7801;48.124;11.590;2023-07-31T07:54:30;95438.72;;;19.88;70.03
15405;BME280;7801;48.124;11.590;2023-07-31T07:56:55;95432.19;;;19.89;70.57
15405;BME280;7801;48.124;11.590;2023-07-31T07:59:20;95428.37;;;19.90;70.42
15405;BME280;7801;48.124;11.590;2023-07-31T08:01:46;95422.28;;;19.94;71.18
15405;BME280;7801;48.124;11.590;2023-07-31T08:04:11;95424.78;;;20.02;71.33
15405;BME280;7801;48.124;11.590;2023-07-31T08:06:36;95413.59;;;19.84;69.74
15405;BME280;7801;48.124;11.590;2023-07-31T08:09:02;95412.91;;;19.87;70.55
15405;BME280;7801;48.124;11.590;2023-07-31T08:11:31;95408.53;;;19.99;70.80
15405;BME280;7801;48.124;11.590;2023-07-31T08:13:57;95412.53;;;20.05;70.11
15405;BME280;7801;48.124;11.590;2023-07-31T08:16:22;95415.09;;;20.17;70.17
15405;BME280;7801;48.124;11.590;2023-07-31T08:18:47;95419.50;;;20.25;69.65
15405;BME280;7801;48.124;11.590;2023-07-31T08:21:14;95423.47;;;20.12;67.99
15405;BME280;7801;48.124;11.590;2023-07-31T08:23:40;95425.94;;;20.20;68.56
15405;BME280;7801;48.124;11.590;2023-07-31T08:26:05;95421.34;;;20.21;68.15
15405;BME280;7801;48.124;11.590;2023-07-31T08:28:31;95426.03;;;20.24;69.85
15405;BME280;7801;48.124;11.590;2023-07-31T08:30:56;95422.22;;;20.25;67.96
15405;BME280;7801;48.124;11.590;2023-07-31T08:33:21;95428.63;;;20.36;67.51
15405;BME280;7801;48.124;11.590;2023-07-31T08:35:47;95418.97;;;20.35;67.07
15405;BME280;7801;48.124;11.590;2023-07-31T08:38:12;95424.53;;;20.42;68.07
15405;BME280;7801;48.124;11.590;2023-07-31T08:40:38;95426.88;;;20.44;67.25
15405;BME280;7801;48.124;11.590;2023-07-31T08:43:03;95435.56;;;20.37;67.41
15405;BME280;7801;48.124;11.590;2023-07-31T08:45:30;95421.22;;;20.49;66.59
15405;BME280;7801;48.124;11.590;2023-07-31T08:47:56;95421.66;;;20.35;65.73
15405;BME280;7801;48.124;11.590;2023-07-31T08:50:22;95420.09;;;20.34;67.23
15405;BME280;7801;48.124;11.590;2023-07-31T08:52:50;95413.31;;;20.40;66.85
15405;BME280;7801;48.124;11.590;2023-07-31T08:55:16;95410.56;;;20.37;66.20
15405;BME280;7801;48.124;11.590;2023-07-31T08:57:42;95421.25;;;20.33;69.01
15405;BME280;7801;48.124;11.590;2023-07-31T09:00:09;95416.62;;;20.34;67.48
15405;BME280;7801;48.124;11.590;2023-07-31T09:05:22;95413.44;;;20.28;69.05
15405;BME280;7801;48.124;11.590;2023-07-31T09:07:49;95408.31;;;20.23;68.11
15405;BME280;7801;48.124;11.590;2023-07-31T09:10:15;95413.16;;;20.33;68.31
15405;BME280;7801;48.124;11.590;2023-07-31T09:12:41;95417.53;;;20.22;68.75
15405;BME280;7801;48.124;11.590;2023-07-31T09:15:07;95408.91;;;20.32;68.92
15405;BME280;7801;48.124;11.590;2023-07-31T09:17:35;95412.72;;;20.31;68.09
15405;BME280;7801;48.124;11.590;2023-07-31T09:20:20;95411.75;;;20.39;66.40
15405;BME280;7801;48.124;11.590;2023-07-31T09:22:47;95407.72;;;20.49;67.62
15405;BME280;7801;48.124;11.590;2023-07-31T09:25:24;95412.97;;;20.61;66.14
15405;BME280;7801;48.124;11.590;2023-07-31T09:27:52;95396.38;;;20.59;66.16
15405;BME280;7801;48.124;11.590;2023-07-31T09:30:18;95399.00;;;20.75;65.58
15405;BME280;7801;48.124;11.590;2023-07-31T09:32:44;95402.25;;;20.84;65.50
15405;BME280;7801;48.124;11.590;2023-07-31T09:35:30;95399.69;;;20.91;66.12
15405;BME280;7801;48.124;11.590;2023-07-31T09:38:15;95405.78;;;20.88;63.60
15405;BME280;7801;48.124;11.590;2023-07-31T09:40:42;95402.81;;;20.93;63.51
15405;BME280;7801;48.124;11.590;2023-07-31T09:43:12;95391.66;;;20.95;63.64
15405;BME280;7801;48.124;11.590;2023-07-31T09:45:40;95398.50;;;20.88;64.70
15405;BME280;7801;48.124;11.590;2023-07-31T09:48:16;95393.53;;;20.90;65.92
15405;BME280;7801;48.124;11.590;2023-07-31T09:50:46;95387.84;;;20.96;66.20
15405;BME280;7801;48.124;11.590;2023-07-31T09:53:12;95387.16;;;21.02;65.95
15405;BME280;7801;48.124;11.590;2023-07-31T09:55:39;95380.28;;;21.05;64.03
15405;BME280;7801;48.124;11.590;2023-07-31T09:58:06;95383.03;;;21.08;64.53
15405;BME280;7801;48.124;11.590;2023-07-31T10:00:32;95370.19;;;21.21;65.65
15405;BME280;7801;48.124;11.590;2023-07-31T10:03:02;95369.41;;;21.20;62.79
15405;BME280;7801;48.124;11.590;2023-07-31T10:05:34;95365.69;;;21.29;63.38
15405;BME280;7801;48.124;11.590;2023-07-31T10:08:00;95355.31;;;21.31;62.52
15405;BME280;7801;48.124;11.590;2023-07-31T10:10:26;95363.84;;;21.33;63.06
15405;BME280;7801;48.124;11.590;2023-07-31T10:12:53;95348.16;;;21.19;63.18
15405;BME280;7801;48.124;11.590;2023-07-31T10:15:19;95353.81;;;21.33;64.89
15405;BME280;7801;48.124;11.590;2023-07-31T10:17:48;95348.34;;;21.30;62.24
15405;BME280;7801;48.124;11.590;2023-07-31T10:20:15;95337.25;;;21.35;63.96
15405;BME280;7801;48.124;11.590;2023-07-31T10:22:44;95323.56;;;21.47;61.68
15405;BME280;7801;48.124;11.590;2023-07-31T10:25:17;95321.22;;;21.45;61.93
15405;BME280;7801;48.124;11.590;2023-07-31T10:27:43;95317.38;;;21.46;62.08
15405;BME280;7801;48.124;11.590;2023-07-31T10:30:12;95323.00;;;21.60;63.30
15405;BME280;7801;48.124;11.590;2023-07-31T10:32:38;95326.16;;;21.66;61.53
15405;BME280;7801;48.124;11.590;2023-07-31T10:35:07;95315.41;;;21.70;60.98
15405;BME280;7801;48.124;11.590;2023-07-31T10:37:39;95310.31;;;21.65;59.08
15405;BME280;7801;48.124;11.590;2023-07-31T10:40:06;95307.19;;;21.59;59.54
15405;BME280;7801;48.124;11.590;2023-07-31T10:42:33;95305.97;;;21.56;60.33
15405;BME280;7801;48.124;11.590;2023-07-31T10:45:05;95300.28;;;21.65;60.02
15405;BME280;7801;48.124;11.590;2023-07-31T10:47:31;95308.34;;;21.61;59.64
15405;BME280;7801;48.124;11.590;2023-07-31T10:50:13;95311.94;;;21.69;60.61
15405;BME280;7801;48.124;11.590;2023-07-31T10:52:38;95315.28;;;21.59;59.18
15405;BME280;7801;48.124;11.590;2023-07-31T10:55:59;95310.19;;;21.54;59.92
15405;BME280;7801;48.124;11.590;2023-07-31T10:58:11;95316.34;;;21.54;58.86
15405;BME280;7801;48.124;11.590;2023-07-31T11:00:41;95307.00;;;21.48;58.90
15405;BME280;7801;48.124;11.590;2023-07-31T11:03:12;95304.34;;;21.52;58.39
15405;BME280;7801;48.124;11.590;2023-07-31T11:08:16;95303.53;;;21.48;59.42
15405;BME280;7801;48.124;11.590;2023-07-31T11:10:42;95295.12;;;21.53;57.28
15405;BME280;7801;48.124;11.590;2023-07-31T11:13:08;95284.09;;;21.65;57.47
15405;BME280;7801;48.124;11.590;2023-07-31T11:15:33;95289.56;;;21.69;58.40
15405;BME280;7801;48.124;11.590;2023-07-31T11:18:00;95283.72;;;21.67;58.11
15405;BME280;7801;48.124;11.590;2023-07-31T11:20:35;95282.81;;;21.55;60.52
15405;BME280;7801;48.124;11.590;2023-07-31T11:23:06;95282.87;;;21.59;60.79
15405;BME280;7801;48.124;11.590;2023-07-31T11:25:32;95283.72;;;21.67;57.74
15405;BME280;7801;48.124;11.590;2023-07-31T11:28:09;95278.38;;;21.70;58.49
15405;BME280;7801;48.124;11.590;2023-07-31T11:30:35;95278.53;;;21.81;59.64
15405;BME280;7801;48.124;11.590;2023-07-31T11:33:03;95274.41;;;21.90;58.50
15405;BME280;7801;48.124;11.590;2023-07-31T11:35:33;95268.69;;;21.95;58.72
15405;BME280;7801;48.124;11.590;2023-07-31T11:37:59;95258.00;;;22.03;57.72
15405;BME280;7801;48.124;11.590;2023-07-31T11:40:24;95256.16;;;22.10;57.82
15405;BME280;7801;48.124;11.590;2023-07-31T11:42:55;95260.28;;;22.01;58.35
15405;BME280;7801;48.124;11.590;2023-07-31T11:45:21;95253.41;;;22.07;58.00
15405;BME280;7801;48.124;11.590;2023-07-31T11:47:49;95258.84;;;22.10;58.04
15405;BME280;7801;48.124;11.590;2023-07-31T11:50:14;95248.41;;;22.09;56.56
15405;BME280;7801;48.124;11.590;2023-07-31T11:52:42;95244.16;;;22.08;58.13
15405;BME280;7801;48.124;11.590;2023-07-31T11:55:09;95239.53;;;22.08;56.65
15405;BME280;7801;48.124;11.590;2023-07-31T11:57:37;95233.38;;;22.11;58.51
15405;BME280;7801;48.124;11.590;2023-07-31T12:00:03;95227.19;;;22.11;58.98
15405;BME280;7801;48.124;11.590;2023-07-31T12:02:29;95230.69;;;22.11;56.03
15405;BME280;7801;48.124;11.590;2023-07-31T12:04:55;95228.66;;;22.05;57.35
15405;BME280;7801;48.124;11.590;2023-07-31T12:07:20;95214.69;;;21.99;57.59
15405;BME280;7801;48.124;11.590;2023-07-31T12:09:53;95215.25;;;22.12;57.05
15405;BME280;7801;48.124;11.590;2023-07-31T12:12:23;95208.25;;;22.07;56.61
15405;BME280;7801;48.124;11.590;2023-07-31T12:14:49;95202.44;;;22.05;59.06
15405;BME280;7801;48.124;11.590;2023-07-31T12:17:16;95200.91;;;22.08;58.44
15405;BME280;7801;48.124;11.590;2023-07-31T12:19:42;95189.09;;;22.19;57.48
15405;BME280;7801;48.124;11.590;2023-07-31T12:22:14;95185.25;;;22.24;55.25
15405;BME280;7801;48.124;11.590;2023-07-31T12:24:41;95188.09;;;22.38;54.52
15405;BME280;7801;48.124;11.590;2023-07-31T12:27:13;95180.38;;;22.37;54.38
15405;BME280;7801;48.124;11.590;2023-07-31T12:29:39;95180.03;;;22.45;55.00
15405;BME280;7801;48.124;11.590;2023-07-31T12:32:22;95175.91;;;22.55;54.80
15405;BME280;7801;48.124;11.590;2023-07-31T12:34:48;95170.53;;;22.58;54.56
15405;BME280;7801;48.124;11.590;2023-07-31T12:37:13;95162.44;;;22.66;55.15
15405;BME280;7801;48.124;11.590;2023-07-31T12:39:38;95167.53;;;22.71;55.32
15405;BME280;7801;48.124;11.590;2023-07-31T12:42:04;95157.47;;;22.71;52.64
15405;BME280;7801;48.124;11.590;2023-07-31T12:44:32;95154.03;;;22.74;54.15
15405;BME280;7801;48.124;11.590;2023-07-31T12:46:58;95147.94;;;22.81;53.46
15405;BME280;7801;48.124;11.590;2023-07-31T12:49:23;95147.66;;;22.96;51.33
15405;BME280;7801;48.124;11.590;2023-07-31T12:51:49;95144.13;;;22.92;53.76
15405;BME280;7801;48.124;11.590;2023-07-31T12:54:14;95141.78;;;22.87;54.19
15405;BME280;7801;48.124;11.590;2023-07-31T12:56:40;95146.03;;;22.88;52.80
15405;BME280;7801;48.124;11.590;2023-07-31T12:59:05;95142.94;;;22.83;51.48
15405;BME280;7801;48.124;11.590;2023-07-31T13:01:31;95141.62;;;22.70;54.30
15405;BME280;7801;48.124;11.590;2023-07-31T13:07:18;95146.63;;;22.68;54.18
15405;BME280;7801;48.124;11.590;2023-07-31T13:09:44;95137.72;;;22.63;55.29